X  Fermer Données météorologiques d'aviation de Metar     EHKD De Kooy Airport
Température
10°C Température
5°C Point de rosée
71% Humidité



Vent
26 KM/H
16 MPH
7 M/S
14 KTS



340°
NNO
Conditions actuelles

Nuages épars Nuages épars
Pression 1001.02 (hPa) - 29.56 (inHg)
Visibilité 6 (mile) - 9.7 (km)
Aéroport
Code de l'aéroport EHKD

Emplacement: De Kooy Airport
Distance: 34 (km)

Metar:
EHKD 160925Z AUTO 34014KT 280V020 9999 SCT016 BKN022 OVC028 10/05 Q1001 WHT TEMPO 4000 SHRA FEW010 SCT015CB BKN020

Temps: 16-04-2024 11:25 CEST